WATER DISTRICT 01 - SNAKE RIVER FLOW ACCOUNTING (VER 2.1.2.1) - May 23, 2017                 20170524

 

      REACH FLOWS IN CFS         ACTUAL  NATURAL   ACTUAL RMAINING PWR&EXCH   STORED RESRVOIR  NATURAL   TOTAL     REACH

                                   DATE     FLOW     FLOW NAT FLOW     FLOW     FLOW     EVAP FLOW DIV  RCH DIV     GAIN LAST RIGHT

 

   1  TO MORAN                   May 18    5587.    2281.    5587.       0.   -3306.       0.       0.       0.    5587.   20130619

  33  MORAN TO ALPINE            May 18   17548.   14242.   17548.       0.   -3306.       0.       0.       0.   11961.   20130619

  34  SALT RIVER ABV RES         May 18    3420.    3420.    3420.       0.       0.       0.       0.       0.    3420.   20130619

  35  GREYS RIVER ABV RES        May 18    2487.    2487.    2487.       0.       0.       0.       0.       0.    2487.   20130619

   2  ALPINE TO IRWIN            May 19   23140.   10262.   23140.       0.  -12878.      24.       0.       0.    -315.   20130619

   3  IRWIN TO HEISE             May 19   24118.   11187.   24065.       0.  -12878.       0.      53.      53.     978.   20130619

   4  HEISE TO BLW DRY BED     * May 19   24118.    6456.   19900.       0.  -13444.       0.    4165.    4169.       0.   20130619

  32  BLW DRY BED TO LORENZO     May 19   24256.    5943.   19511.       0.  -13569.       0.     527.     529.     138.   20130619

  11  TO HENRYS LAKE             May 16     207.      73.       0.       0.      73.       0.     207.       0.     207.   19170515

  12  HENRYS L TO ISLAND PARK    May 17    1263.     947.    1056.       0.    -109.       0.       0.       0.    1056.   20130619

  13  ISLAND PARK TO ASHTON      May 18    2901.    2586.    2694.       0.    -109.       0.       0.       0.    1639.   20130619

  30  ASHTON TO AB FALLS RIVER * May 18    2901.    2559.    2668.       0.    -109.       0.      26.      26.       0.   20130619

  14  TO GRASSY LAKE             May 18      34.       0.       0.       0.       0.       0.      34.       0.      34.   19360213

  15  GRASSY LK TO ABV YELLOW    May 18    2046.    2012.    2012.       0.       0.       0.       0.       0.    2012.   20130619

  16  ABV YELLOW TO CHESTER      May 18    2280.    1977.    1977.       0.       0.       0.     268.     268.     234.   20130619

  17  AB FALLS R TO ST ANTHONY   May 18    5205.    3725.    3898.       0.    -172.       0.     772.     847.      24.   20130619

  10  ST ANTHONY TO AB NF TETN * May 18    5205.    3141.    3313.       0.    -172.       0.     585.     585.       0.   20130619

  18  AB S LEIGH TO ST ANTHONY   May 18    2170.    2239.    2170.       0.      69.       0.       0.       0.    2170.   20130619

  19  ST ANTH TO TETON FORKS     May 18    2192.    1624.    1554.       0.      69.       0.     638.     638.      22.   20130619

  47  TETON FORKS TO MOUTH     * May 18    2192.    1565.    1496.       0.      69.       0.      59.      59.       0.   20130619

  20  AB NF TETN TO REXBURG      May 19    7648.    4956.    5060.       0.    -103.       0.       0.       0.     251.   20130619

  21  LORENZO TO MENAN           May 19   33705.   12689.   26373.       0.  -13684.       0.       0.       0.    1802.   20130619

   5  MENAN TO NR IDAHO FALLS    May 19   33150.   10873.   24469.       0.  -13596.       0.    1348.    1348.    -556.   20130619

  36  NR ID FALLS TO AB WLW CR * May 19   33150.   10698.   24294.       0.  -13596.       0.     175.     175.       0.   20130619

  23  WILLOW CRK BLW TEX CREEK   May 19     673.     673.     673.       0.       0.       0.       0.       0.     673.   20130619

  24  BLW TEX CREEK TO NR RIRI   May 19     673.     476.     673.       0.    -197.       6.       0.       0.       0.   20130619

  25  NR RIRIE TO FDWY NR UCON   May 19     690.     174.     417.       0.    -243.       0.     273.     571.      17.   20130619

  28  FDWY NR UCON TO END      * May 19     690.     174.     417.       0.    -243.       0.       0.       0.       0.   20130619

  31  WILLOW CRK TO SHELLEY      May 20   32160.    9706.   22623.       0.  -12918.       0.     408.     408.   -1679.   20130619

   6  SHELLEY TO AT BLACKFOOT    May 20   32399.    7589.   20873.       0.  -13284.       0.    1990.    1990.     239.   20130619

  22  AT BLKFOOT TO BLW BLKFT  * May 20   32399.    7462.   20745.       0.  -13284.       0.     128.     128.       0.   20130619

  38  BLW BLKFT TO NR BLKFOOT    May 21   33117.    8693.   21463.       0.  -12770.       0.       0.       0.     718.   20130619

  39  PORTNUEF R AT POCATELLO    May 21     804.     804.     804.       0.       0.       0.       0.       0.     804.   20130619

   7  NR BLACKFOOT TO NEELEY     May 22   35045.    6522.   23374.       0.  -16853.      72.      17.      17.    1124.   20130619

   8  NEELEY TO MINIDOKA         May 22   36169.    6056.   23071.       0.  -17016.      80.    1427.    1427.    1124.   20130619

   9  MINIDOKA TO MILNER         May 23   34713.       0.   15267.       0.  -15267.       0.    6348.    6348.   -1456.   20130619

                          * - INDICATES FLOW ESTIMATED, NOT MEASURED                TOTALS      19446.   19584.   34713.

 

     RESERVOIR      PREVIOUS AF CURRNT AF  CHNG CFS ACCRD CFS  TOTAL AF EVAP AF      PRIORITY  RESERVOIR       AF RIGHT   AF STORED

                                                                                 

   1 JACKSON LAKE      577700.0  581974.0    2154.8       0.0  847000.0     0.0        1  JACKSON LAKE 1906    298981.0    298981.0

   2 PALISADES         332071.0  349857.0    8967.0       0.0 1357000.0  1968.6        2  LAKE WALCOTT          95200.0     95200.0

   3 HENRYS LAKE        87924.7   87924.7       0.0     207.0   63383.2     0.0        3  JACKSON LAKE 1910    138829.0    138829.0

   4 ISLAND PARK       129282.0  129595.0     157.8       0.0  135000.0  1356.3        4  JACKSON LAKE 1913    409190.0    409190.0

   5 GRASSY LAKE        14372.7   14424.9      26.3      34.2   14685.7     0.0        5  HENRYS LAKE 1917      79350.0     52733.2

   6 RIRIE              79434.0   79717.8     143.1       0.0   80500.0   603.9        6  PALISADES WWS        259600.0    259600.0

   7 AMERICAN FALLS   1645353.0 1655749.0    5241.2       0.0 1672590.0  4329.6        7  ISLAND PARK 1921      45000.0     45000.0

   8 LAKE WALCOTT       91105.5   89938.9    -588.2       0.0   95200.0  4983.1        8  AMERICAN FLS WWS     156830.0    156830.0

   9 LAKE MILNER        34935.6   34386.3    -276.9       0.0       0.0     0.0        9  AMERICAN FALLS      1515760.0   1515760.0

                                                                                      10  ISLAND PARK 1935      90000.0     90000.0

     TOTAL            2992178.5 3023567.6   15825.1     241.2 4265358.9 13241.5       11  GRASSY LAKE           15204.0     14685.7

                                                                                      12  PALISADES 1939       940400.0    940400.0

                      CHANGE IN   STORAGE  STO PAST     TOTAL    UNACCT   AM FALLS    13  HENRYS LAKE 1965      10650.0     10650.0

                        CONTENT  DIVERTED    MILNER    STORED    STORED  GAIN DIFF    14  RIRIE                 80500.0     80500.0

                                                                                      15  PALISADES PWRHD      157000.0    157000.0

   YEAR-TO-DATE AF    1828014.0     278.6 1489102.1 4265359.0  471216.4    -4806.6    16  RENTAL LTF                0.0         0.0

                                                                                      17  PAL PWRHD LTF             0.0         0.0

                                                                                 

                                                  DIVERSION DATA - May 23, 2017                                               20170524

 

                       CFS  CFS    AF     AF                       CFS  CFS    AF     AF                       CFS  CFS    AF     AF

     DIVERSION        DIVN STOR  USED   RMNG     DIVERSION        DIVN STOR  USED   RMNG      DIVERSION       DIVN STOR  USED   RMNG

 

   1 P BYRD              0    0     0      0 117 YELLOWSTONE         0    0     0      0  233 STIENKE-MURDOCK     0    0     0      0

   2 BOY SCOUT PUMP      0    0     0      0 118 ATCHLEY PMPS (9E    0    0     0      0  234 L CARLSON N (4B)    0    0     0      0

   3 A ROSTAD            0    0     0      0 119 MARYSVILLE (9A)    14    0     0      0  235 B TOMCHAK #2        0    0     0      0

   4 R ROSE              0    0     0      0 120 F & L GRIFFEL       0    0     0      0  236 L CARLSON S (4C)    0    0     0      0

   5 PALISADES CANAL    53    0     0      0 121 R BAUM              0    0     0      0  237 H BROWN             0    0     0      0

   6 J FLEMING           0    0     0      0 122 ORME PLACE          0    0     0      0  238 OSGOOD GR PMP       0    0     0      0

   7 MERT OGDEN          0    0     0      0 123 G/6 (9F)            0    0     0      0  239 KINGSTON NTH        0    0     0      0

   8 LYNN DIXON          0    0     0      0 124 FARMERS OWN (11A    0    0     0      0  240 G OFFUT (4D)        0    0     0      0

   9 J CHICK             0    0     0      0 125 W SCAFE             0    0     0      0  241 KINGSTON STH        0    0     0      0

  10 L JACOBSON          0    0     0      0 126 R STURM #2 (9G)     0    0     0      0  242 BEAR ISL NORTH      0    0     0      0

  11 I SPAULDING         0    0     0      0 127 R STURM #1 (9H)     0    0     0      0  243 BEAR ISL WEST       0    0     0      0

  12 B FOSTER            0    0     0      0 128 M GRIFFEL           0    0     0      0  244 OSGOOD             28    0     0      0

  13 ANDERSON (1A)     255    0     0      0 129 L LOOSLI #2         0    0     0      0  245 CLEMENTS            0    0     0      0

  14 M & M CATTLE        0    0     0      0 130 C MALOUF            0    0     0      0  246 KENNEDY             0    0     0      0

  15 M NEWBY #1 (2A)     0    0     0      0 131 CONANT CNL (12A)    0    0     0      0  247 GREAT WEST (21A)  299    0     0      0

  16 M NEWBY #2 (2B)     0    0     0      0 132 K NYBORG            0    0     0      0  248 L HANSEN E (4E)     0    0     0      0

  17 M NEWBY #3 (2C)     0    0     0      0 133 BOOM CR CNL (13A    0    0     0      0  249 A ZOHNER            0    0     0      0

  18 EAGLE ROCK (1B)   266    0     0      0 134 ORME CANAL          0    0     0      0  250 V CENELL            0    0     0      0

  19 FARMERS FRIEND    370    0     0      0 135 SQUIR PMP 3 (14A    0    0     0      0  251 M BOAM (4F)         0    0     0      0

  20 ENTERPRIZE        169    0     0      0 136 L ORME PUMP         0    0     0      0  252 R MACKAY (4G)       0    0     0      0

  21 C HICKMAN           0    0     0      0 137 HARSHBARGER (13B    0    0     0      0  253 IDAHO (33A)       735    0     0      0

  22 BUTLER ISLAND      40    0     0      0 138 SQUIR PMP 1 (14B    0    0     0      0  254 MORTIMER PU (33B    0    0     0      0

  23 ROSS AND RAND       6    0     0      0 139 D ZUNDELL (12B)     0    0     0      0  255 PORTER (21B)      175    0     0      0

  24 STEELE              0    0     0      0 140 L LOOSLI #3 (15A    0    0     0      0  256 LOERTSCHER          0    0     0      0

  25 HARRISON          379    0     0      0 141 L LOOSLI #4 (15B    0    0     0      0  257 BOYD FOSTER         5    0     0      0

  26 CHENEY              0    0     0      0 142 D BUDGE             0    0     0      0  258 SCHWENDIMAN         0    0     0      0

  27 G SCOTT #1 (3A)     0    0     0      0 143 J HILL (12C)        0    0     0      0  259 LOVELL # 1          2    0     0      0

  28 J BROWN             0    0     0      0 144 D REYNOLDS          0    0     0      0  260 FERGUSON            0    0     0      0

  29 G SCOTT #2 (3B)     0    0     0      0 145 C LOOSLI            0    0     0      0  261 LOVELL # 2          1    0     0      0

  30 SUBDIV PUMP         0    0     0      0 146 T POTTER            0    0     0      0  262 W REED #1           6    0     0      0

  31 RUDY              259    0     0      0 147 ENTERPRISE         44    0     0      0  263 SARGENT & SUMMRS    0    0     0      0

  32 LOWDER SLOUGH      51    0     0      0 148 R D MILLER          0    0     0      0  264 DURTSCHI PUMPS      0    0     0      0

  33 KITE & NORD        11    0     0      0 149 C ATCHLEY (9I)      0    0     0      0  265 W REED #2           0    0     0      0

  34 BURGESS (4A)      906    0     0      0 150 W C DAVIS           0    0     0      0  266 FOSTER-SARGENT P    0    0     0      0

  35 M H HILL            0    0     0      0 151 FALL R CNL (16A)  101    0     0      0  267 SPERRY              0    0     0      0

  36 CLARK & ED (5A)    60    0     0      0 152 CHESTER            60    0     0      0  268 BRINKERHOFF         0    0     0      0

  37 CROFT               7    4    20    -20 153 MCBEE               0    0     0      0  269 ORVAL AVERY         0    0     0      0

  38 J EDWARDS (5D)      0    0     0      0 154 SILKEY              6    0     0      0  270 ROY AVERY          14    0     0      0

  39 G HOLMAN            0    0     0      0 155 CURR               43    0     0      0  271 STUCKI PUMPS        0    0     0      0

  40 G MUMA              0    0     0      0 156 RLF PUMP            0    0     0      0  272 SCHWENDIMAN # 2     0    0     0      0

  41 EAST LABELLE      130    0     0      0 157 L LOOSLI #5         0    0     0      0  273 ORVAL AVERY PUMP    0    0     0      0

  42 B GROVER (5B)       0    0     0      0 158 G BLANCHARD         0    0     0      0  274 ROY COOPER SAND    11    0     0      0

  43 RIGBY             141    0     0      0 159 LAST CHANCE        59    0     0      0  275 ROY COOPER WILL     0    0     0      0

  44 K FOSTER (5C)       0    0     0      0 160 CROSSCUT TO TETN   75    6    19    -19  276 D KEELER            0    0     0      0

  45 WHITE ISLAND        0    0     0      0 161 XCUT FALL R (16B   80    0     0      0  277 PROGRESSIVE SAND  429   17   126   -126

  46 DILTS LAT (6B)      9    0     0      0 162 FARMERS FRIEND     91    0     0      0  278 BEAN                4    0     0      0

  47 DILTS (6A)         24    0     0      0 163 TWIN GROVES        74    0     0      0  279 W & O COOPER        0    0     0      0

  48 ISLAND (30A)      115    0     0      0 164 ST ANTH U (17A)   258    0     0      0  280 IDAHO FR SAND CK    0    0     0      0

  49 W LAB & LG I (7A  555    0     0      0 165 SALEM UNION CANA  211    0     0      0  281 DEMICK              0    0     0      0

  50 PARKS & LEWSVLLE  341    0     0      0 166 EGIN              165    0     0      0  282 PROGRESSIVE WILL   99   29   109   -109

  51 NORTH RIGBY        57    0     0      0 167 ST AN U FDR (17B   58    0     0      0  283 IF MONROC LYONS     0    0     0      0

  52 WHITE DITCH (7B)    6    0     0      0 168 INDEPENDENT       145    0     0      0  284 WOODVILLE (22A)    46    0     0      0

  53 D PHILLIPS          0    0     0      0 169 CONSOLIDATED FRS  217    0     0      0  285 WOODVL PMP1 (22B    0    0     0      0

  54 VON BARON           0    0     0      0 170 SOUTH PIPE (31A)    0    0     0      0  286 WOODVL PMP2 (22C    0    0     0      0

  55 BRAMWELL (8A)       0    0     0      0 171 J RICKS (31B)       0    0     0      0  287 WOODVL SIPH (22D    8    0     0      0

  56 ELLIS (30B)        13    0     0      0 172 BOELKE (31C)        0    0     0      0  288 IDAHO PUMP          0    0     0      0

  57 FRESH PAC (8B)      0    0     0      0 173 CLEMENTSVLL (31D    0    0     0      0  289 SNAKE R VY (23A)  354    0     0      0

  58 J T JONES           0    0     0      0 174 HIBBERT FARMS       0    0     0      0  290 A CORBETT           0    0     0      0

  59 C JONES             0    0     0      0 175 R & J BROWN         0    0     0      0  291 P HILL (23B)        0    0     0      0

  60 A ZOHNER (7D)       0    0     0      0 176 P L STOTT           0    0     0      0  292 RESERV MITIG        0    0     0      0

  61 W DABELL (7E)       0    0     0      0 177 B PARKINSON         0    0     0      0  293 RESERVATION         0    0     0      0

  62 D STOKER (7C)       0    0     0      0 178 CANYON CR CANAL     0    0     0      0  294 OXBOW               0    0     0      0

  63 SKAAR PUMP          0    0     0      0 179 LINDERMAN (31E)     0    0     0      0  295 BLACKFOOT         243    0     0      0

  64 J N ERICKSON        0    0     0      0 180 G CRAPO             0    0     0      0  296 NEW LAVASDE (24A   81    0     0      0

  65 MATTSON-CRAIG       1    0     0      0 181 P STEVENS           0    0     0      0  297 ADAMS SOUTH (25B    0    0     0      0

  66 SUNNYDELL (29A)    82    0     0      0 182 V SCHWENDIMAN       0    0     0      0  298 ADAMS NORTH (25C    0    0     0      0

  67 B COVINGTON         0    0     0      0 183 R B RICKS           0    0     0      0  299 PEOPLES (25A)     205    0     0      0

  68 T PARKINSON         0    0     0      0 184 CANYON CR LAT       0    0     0      0  300 ABERDEEN         1095    0     0      0

  69 R GROVER            0    0     0      0 185 SIDDOWAY SHEEP C    0    0     0      0  301 SWID (+)            0    0     0      0

  70 BYBEE PUMP (29B)    0    0     0      0 186 H BISCHOFF          0    0     0      0  302 CORBETT            92    0     0      0

  71 D CHENEY            0    0     0      0 187 WILFORD            50    0     0      0  303 NIELSON-HANSEN      7    0     0      0

  72 L ROBINSON          0    0     0      0 188 D ALLEN (18B)       0    0     0      0  304 R LAMBERT (26B)     0    0     0      0

  73 LENROOT            62    0     0      0 189 B TUCKER (18C)      0    0     0      0  305 LAVASD PMPS (24B    0    0     0      0

  74 R BURNS             0    0     0      0 190 B PARKER (18D)      0    0     0      0  306 RIVERSIDE (26A)    40    0     0      0

  75 REID              157    0     0      0 191 SIDWY PMP (18E)     0    0     0      0  307 DANSKIN           133    0     0      0

  76 TEXAS & LIBRTY P  186    0     0      0 192 MCKINNLEY (18F)     0    0     0      0  308 TREGO              60    0     0      0

  77 BANNOCK JIM        20    1     1     -1 193 TETON IRRIG (18A   39    0     0      0  309 JENSEN GROVE       32    0     0      0

  78 HILL PETTINGER     15    2     3     -3 194 SIDDOWAY (18G)      0    0     0      0  310 WEARYRICK          29    0     0      0

  79 NELSON COREY        6    0     0      0 195 PIONEER             3    0     0      0  311 WADSWORTH (32A)     0    0     0      0

  80 L HILL              0    0     0      0 196 STEWART             0    0     0      0  312 WADSWORTH (32B)     0    0     0      0

  81 G MAROTZ            0    0     0      0 197 N BIRCH             0    0     0      0  313 WATSON             72    0     0      0

  82 N FK HIGHLANDS      0    0     0      0 198 B LEAVITT           0    0     0      0  314 PARSONS            26    0     0      0

  83 F HOWELL            0    0     0      0 199 PINCOCK-BYINGTON    3    0     0      0  315 FT HALL MICHAUD     0    0     0      0

  84 S BOLLAERT          0    0     0      0 200 B HOLLIST           0    0     0      0  316 FALLS IRRIGATION   17    0     0      0

  85 F VANDERSLOOT #1    0    0     0      0 201 TETON ISLAND FDR  388    0     0      0  317 M OSBORN            0    0     0      0

  86 F VANDERSLOOT #2    0    0     0      0 202 SALEM UNION B       6    0     0      0  318 CALL FARMS          0    0     0      0

  87 F VANDERSLOOT #3    0    0     0      0 203 J HARRIS            0    0     0      0  319 R EVANS             0    0     0      0

  88 T HOLCOMB           0    0     0      0 204 ROXANA             21    0     0      0  320 MINIDOKA N (27A)  788    0     0      0

  89 R LEE               0    0     0      0 205 ISLAND WARD        22    0     0      0  321 MINIDOKA S (27B)  639    0     0      0

  90 Z EGBERT #1 (9B)    0    0     0      0 206 SAUREY             16    0     0      0  322 LHC PROP            0    0     0      0

  91 R RITCHEY           0    0     0      0 207 PINCOCK-GARNER      0    0     0      0  323 L LEBSACK           0    0     0      0

  92 N MILLER #1 (10A    0    0     0      0 208 GARDNER-BEDDES      0    0     0      0  324 MID MISC            0    0     0      0

  93 N MILLER #2 (10B    0    0     0      0 209 BIGLER SLOUGH       0    0     0      0  325 MILNER MISC         0    0     0      0

  94 Z EGBERT #2         0    0     0      0 210 WDMANSE-JSN (19A    5    0     0      0  326 LAW-KER FARMS       0    0     0      0

  95 R D BAKER           0    0     0      0 211 G GODFREY           0    0     0      0  327 BURLEY GC           0    0     0      0

  96 D PHELPS (9C)       0    0     0      0 212 R R RICKS           0    0     0      0  328 CITY OF BURLEY      0    0     0      0

  97 D SEELEY            0    0     0      0 213 CITY OF REXBURG    19    0     0      0  329 SIMPLOT FTLZR       0    0     0      0

  98 Z EGBERT #3 (9D)    0    0     0      0 214 T BRUNSON (19B)     0    0     0      0  330 AMALGA SUGAR        0    0     0      0

  99 Z EGBERT #4         0    0     0      0 215 J S WRIGHT          0    0     0      0  331 R TILLEY PUMP       0    0     0      0

 100 Z EGBERT #5         0    0     0      0 216 REXBURG IRRIG     125    0     0      0  332 MILLERCOORS         0    0     0      0

 101 G NEDROW            0    0     0      0 217 BEAVER DICK PMP     0    0     0      0  333 K SANDMANN          0    0     0      0

 102 BAKER & NEDROW      0    0     0      0 218 L A HARTERT (20B    0    0     0      0  334 H SCHODDE           0    0     0      0

 103 M REYNOLDS #1       0    0     0      0 219 A GUNDERSON (20C    0    0     0      0  335 PR ENT #1           0    0     0      0

 104 R & C BAUM          0    0     0      0 220 MILLER-BARN (20D    0    0     0      0  336 PR ENT #2           0    0     0      0

 105 J MCCULLOCH         0    0     0      0 221 BUTTE SLOUG (20E    0    0     0      0  337 SWID PUMPS          0    0     0      0

 106 M REYNOLDS #2       0    0     0      0 222 BUTTE-MKT L (20A  237    0     0      0  338 P HOBSON            0    0     0      0

 107 A NEDROW #1         0    0     0      0 223 BEAR TRAP          50    0     0      0  339 V HOBSON            0    0     0      0

 108 A NEDROW #2         0    0     0      0 224 WALKER FARMS        0    0     0      0  340 A & B IRR DIST    128    0     0      0

 109 J NEDROW            0    0     0      0 225 M TOMCHAK           0    0     0      0  341 PA LATERAL (28B)   61    0     0      0

 110 V & D KIRKHAM       0    0     0      0 226 A WILDE PUMP        0    0     0      0  342 MILNER IRRIG      198    0     0      0

 111 D NEDROW            0    0     0      0 227 K ALBERTSON         0    0     0      0  343 A LATERAL (28C)     0    0     0      0

 112 L FRANSEN (11B)     0    0     0      0 228 N FULLMER           0    0     0      0  344 J BRUNE (28D)       0    0     0      0

 113 L BRATT             0    0     0      0 229 D BOYCE             0    0     0      0  345 NS XCUT (28E)     517    0     0      0

 114 L LOOSLI #1         0    0     0      0 230 B TOMCHAK #1        0    0     0      0  346 RES DIST #2      1059    0     0      0

 115 DEWEY              26    0     0      0 231 C BOYCE             0    0     0      0  347 NORTHSDE TF (28A 1683    0     0      0

 116 J SEELEY            0    0     0      0 232 B TOMCHAK #3        0    0     0      0  348 TWIN FALLS SOUTH 2703    0     0      0

 

 NOTE: DIVERSIONS WITH NUMBER AND LETTER IN PARENTHESES AFTER THE NAME INDICATE NATURAL FLOW AND STORAGE USE IS COMBINED AND REPORTED

 UNDER THE IDENTICALLY NUMBERED CANAL WITH LETTER  "A".  FOR EXAMPLE, NEWBY #2 (2B) AND NEWBY #3 (2C) ARE REPORTED UNDER NEWBY #1 (2A).

 

 (+)  SWID NATURAL FLOW MAY BE COMBINED WITH SWID PUMPS, MILNER IRRIG DIST, BURLEY IRRIG DIST, AND TWIN FALLS SOUTH.

 

                               MISCELLANEOUS DATA - May 23, 2017

 

 EAGLE ROCK DUMP:                  252.  CFS

 EAGLE ROCK CREDIT:                252.  CFS

 EAGLE ROCK TOTAL:                5152.   AF

 

 RIRIE LOSS:                       -49.  CFS

 RIRIE TOTAL:                     3897.   AF

 

 WIILOW CREEK LOSS:                  0.  CFS

 WILLOW CREEK TOTAL:              -624.   AF

 

 DRY BED:                         3671.  CFS

 

 CROSS CUT AT HEAD:                155.  CFS

 CROSS CUT AT MIDDLE:               84.  CFS

 CROSS CUT AT END:                  69.  CFS

 

 S BRANCH FALL RIVER ABV XCUT:      26.  CFS

 S BRANCH FALL RIVER BLW XCUT:      35.  CFS

 

 N FORK TETON BELOW SPLITTER:      330.  CFS

 S FORK TETON AT REXBURG:         1294.  CFS

 

 RESERVATION AT HEAD:                0.  CFS

 SAND CREEK TO RESERVATION:        198.  CFS

 RESERVATION AT DROP:              189.  CFS

 SAND CREEK EXCHANGE:                0.  CFS

 

 TRIBAL 1867:                      189.  CFS

 TRIBAL TOTAL VOLUME:            15747.   AF

 NON TRIBAL 1891:                    0.  CFS

 NON TRIBAL VOLUME:               1858.   AF

 

 SPRING CREEK:                     443.  CFS

 SPRING CREEK GAIN:               3272.  CFS

 

 GAIN AVERAGING ADJUSTMENT:      50130.   AF

 

  RESERVATION CANAL DATA

                 PRIVATE 1      PRIVATE 2      NONTRIBAL         TRIBAL   SAND CR EXCH

 RATE (CFS):            0.             0.             0.           189.             0.

 VOLUME (AF):           8.             0.          1858.         15747.             0.

 VOLUME LIMIT (AF):    63.           137.         60000.        100000.         50000.

 

 SWID 01-00023 DELIVERY DATA

                 TO BID     TO TFCC     TO MILN     TO SWIP       TOTAL

 RATE (CFS):         0.          0.          0.          0.          0.

 VOLUME (AF):        0.          0.          0.          0.          0.

 SWID START DAY OF THE YEAR:   133

 

                                                       EXCHANGE PUMP DATA

  EXCHANGE PUMP      CFS PUMPED  AF YR TOTAL  EXCHANGE PUMP      CFS PUMPED  AF YR TOTAL  EXCHANGE PUMP      CFS PUMPED  AF YR TOTAL

 

  1 COVINGTON BROS E        0.         0.0     8 M PARKINSON EXCH        0.         0.0   15 D L & R ARD EXCH        0.         0.0

  2 L LOOSLI EXCHANG        0.         0.0     9 D BOTT EXCHANGE         0.         0.0   16 HINK INC EXCHANG        0.         0.0

  3 USBR 2 EXCHANGE         0.         0.0    10 C HOOPES EXCHANG        0.         0.0   17 R & J BROWN EXCH        0.         0.0

  4 STEVECO CANYON E        0.         0.0    11 USBR 5 EXCHANGE         0.         0.0   18 USBR 3 EXCHANGE         0.         0.0

  5 CANYON CREEK LAT        0.        18.0    12 HOOPES BROTHERS         0.         0.0   19 USBR 1 EXCHANGE         0.         0.0

  6 B PARKINSON EXCH        0.         0.0    13 R RICKS EXHCANGE        0.         0.0

  7 V SCHWENDIMAN EX        0.         0.0    14 EHCO RANCH EXCHA        0.         0.0

 

 YEAR TO DATE TOTAL =     18.0 AF